Mobile Regional Airport
KMOB : now visible

Airfield :











YOU CAN JOIN US ON...

 
LOGIN :

Register | Disclaimer

   EN    FR    IT 

 









Legend :    VFR   Marginal VFR   IFR   Intensive IFR   Very Intensive IFR
Visi :
Ceiling :
>= 8 km
>= 3000ft
5 to 8 km
1000 to 3000 ft
1500m to 5 km
500 to 1000 ft
800 to 1500m
200 to 500 ft
< 800m
< 200 ft
Symbols :   Thunderstorms  Fog  Heavy snow  Heavy precipitations  Wind > 20 kt






- Airport Elevation : 219 ft
- IATA code : MOB


KMOB - Mobile Regional

CURRENT METAR :
  • 161204Z 00000KT 3SM BR FEW003 BKN055 BKN250 20/18 A3005 RMK AO2 T01940178 $

EXPIRED METARs :
  • 161156Z 12003KT 5SM BR OVC060 19/18 A3005 RMK AO2 SLP171 T01940178 52007 $
  • 161124Z 13003KT 4SM BR BCFG OVC055 19/18 A3004 RMK AO2 T01940178 $
  • 161113Z AUTO 13004KT 1 1/4SM BR OVC055 A3004 RMK AO2 $
  • 161056Z AUTO 14004KT 1SM BR OVC055 A3004 RMK AO2 SLPNO $
  • 161033Z AUTO 15003KT 3SM BR OVC050 A3003 RMK AO2 $
  • 161025Z AUTO 15004KT 2 1/2SM BR OVC050 A3003 RMK AO2 $
  • 161002Z AUTO 14004KT 1/2SM FG SCT012 SCT019 OVC048 A3002 RMK AO2 $
  • 160956Z AUTO 14004KT 1/4SM FG SCT012 BKN019 OVC048 A3002 RMK AO2 SLPNO $
  • 160943Z AUTO 13004KT 1/2SM FG BKN016 BKN021 OVC029 A3002 RMK AO2 $
  • 160924Z AUTO 14003KT 1 3/4SM BR BKN024 OVC030 A3002 RMK AO2 $

TAF KMOB
Valid from the 16 at 12:00 until the 17 at 12:00 UTC


161126Z 1612/1712 13004KT 2SM BR OVC060
FM161500 17007KT P6SM BKN050
FM161800 16013KT P6SM OVC050
PROB30 1700/1706 4SM TSRA OVC025CB
FM170600 18009KT 5SM TSRA BR OVC025CB



MET'MAP, your aeronautical weather chart ! - Copyright ORBIFLY December 2007 - Disclaimer

ORBIFLY MET'MAP TEAM :

Programming & Development : Alexandra Zaïnal
Concept & original design : Baudouin d'Aumeries
Assistance for programming : Marc-Olivier Méhu
Technical & hardware support : Manuel Goepfert

Contact : metmap@orbifly.com




SOURCES & CREDITS :

   NOAA       Earth
Advisory